createdAt,value
2022-10-26T00:01:12.507Z,4.80
2022-10-26T00:03:41.419Z,5.13
2022-10-26T00:06:12.863Z,5.05
2022-10-26T00:08:40.800Z,5.10
2022-10-26T00:11:08.634Z,4.80
2022-10-26T00:13:36.911Z,5.32
2022-10-26T00:16:14.906Z,4.97
2022-10-26T00:18:42.444Z,5.32
2022-10-26T00:21:11.465Z,5.00
2022-10-26T00:23:39.177Z,5.28
2022-10-26T00:26:07.450Z,5.57
2022-10-26T00:28:35.312Z,4.22
2022-10-26T00:31:04.584Z,4.72
2022-10-26T00:33:32.772Z,6.78
2022-10-26T00:36:00.050Z,6.65
2022-10-26T00:38:27.611Z,7.65
2022-10-26T00:40:54.720Z,6.80
2022-10-26T00:43:21.886Z,7.55
2022-10-26T00:45:51.987Z,8.13
2022-10-26T00:48:26.785Z,8.95
2022-10-26T00:50:56.658Z,7.45
2022-10-26T00:53:23.825Z,7.32
2022-10-26T00:55:53.656Z,6.95
2022-10-26T00:58:22.247Z,4.97
2022-10-26T01:00:50.095Z,4.43
2022-10-26T01:03:17.958Z,4.35
2022-10-26T01:05:48.031Z,4.07
2022-10-26T01:08:17.540Z,3.80
2022-10-26T01:10:45.534Z,5.47
2022-10-26T01:13:13.496Z,4.03
2022-10-26T01:16:14.906Z,3.97
2022-10-26T01:19:03.380Z,4.15
2022-10-26T01:22:00.936Z,5.22
2022-10-26T01:24:30.235Z,5.30
2022-10-26T01:26:59.657Z,7.45
2022-10-26T01:29:43.747Z,6.78
2022-10-26T01:32:27.623Z,6.63
2022-10-26T01:35:05.585Z,5.07
2022-10-26T01:37:39.414Z,5.05
2022-10-26T01:40:12.285Z,5.03
2022-10-26T01:42:44.202Z,5.50
2022-10-26T01:45:14.552Z,4.32
2022-10-26T01:47:43.776Z,4.50
2022-10-26T01:50:11.878Z,3.72
2022-10-26T01:52:39.841Z,4.38
2022-10-26T01:55:46.865Z,4.05
2022-10-26T01:58:22.801Z,5.18
2022-10-26T02:01:11.122Z,4.20
2022-10-26T02:03:48.285Z,4.13
2022-10-26T02:06:36.307Z,3.63
2022-10-26T02:09:11.930Z,4.13
2022-10-26T02:11:43.684Z,3.70
2022-10-26T02:14:36.561Z,3.30
2022-10-26T02:17:14.465Z,3.33
2022-10-26T02:19:53.163Z,2.90
2022-10-26T02:22:34.001Z,3.60
2022-10-26T02:25:07.584Z,3.20
2022-10-26T02:27:41.359Z,3.65
2022-10-26T02:30:10.954Z,3.28
2022-10-26T02:32:41.434Z,4.05
2022-10-26T02:35:09.082Z,3.88
2022-10-26T02:37:38.162Z,4.90
2022-10-26T02:40:11.488Z,6.40
2022-10-26T02:42:44.198Z,5.65
2022-10-26T02:45:15.595Z,4.28
2022-10-26T02:47:43.132Z,4.28
2022-10-26T02:50:10.957Z,4.90
2022-10-26T02:52:58.990Z,5.80
2022-10-26T02:55:30.988Z,3.45
2022-10-26T02:58:03.021Z,3.20
2022-10-26T03:00:31.101Z,3.45
2022-10-26T03:02:59.540Z,3.75
2022-10-26T03:05:28.731Z,2.63
2022-10-26T03:07:56.897Z,3.55
2022-10-26T03:10:25.150Z,3.22
2022-10-26T03:12:52.725Z,2.40
2022-10-26T03:15:21.944Z,3.17
2022-10-26T03:17:49.384Z,3.28
2022-10-26T03:20:16.974Z,2.33
2022-10-26T03:22:44.270Z,2.42
2022-10-26T03:25:11.561Z,2.55
2022-10-26T03:27:39.011Z,3.15
2022-10-26T03:30:06.779Z,4.30
2022-10-26T03:32:34.008Z,3.53
2022-10-26T03:35:01.124Z,3.22
2022-10-26T03:37:28.347Z,3.72
2022-10-26T03:39:55.490Z,3.78
2022-10-26T03:42:22.827Z,2.78
2022-10-26T03:44:50.055Z,3.38
2022-10-26T03:47:17.488Z,4.40
2022-10-26T03:49:44.642Z,3.30
2022-10-26T03:52:12.301Z,3.70
2022-10-26T03:54:39.604Z,4.40
2022-10-26T03:57:06.771Z,4.57
2022-10-26T03:59:33.997Z,5.47
2022-10-26T04:02:01.251Z,4.32
2022-10-26T04:04:28.951Z,3.70
2022-10-26T04:06:56.152Z,3.33
2022-10-26T04:09:23.530Z,3.28
2022-10-26T04:11:50.817Z,3.15
2022-10-26T04:14:18.315Z,2.83
2022-10-26T04:16:45.630Z,2.47
2022-10-26T04:19:12.769Z,2.22
2022-10-26T04:21:39.997Z,3.20
2022-10-26T04:24:07.280Z,3.33
2022-10-26T04:26:34.513Z,3.00
2022-10-26T04:29:02.643Z,2.70
2022-10-26T04:31:30.069Z,4.22
2022-10-26T04:33:57.254Z,3.75
2022-10-26T04:36:24.961Z,3.13
2022-10-26T04:38:52.154Z,3.47
2022-10-26T04:41:19.972Z,3.17
2022-10-26T04:43:47.215Z,3.25
2022-10-26T04:46:16.733Z,2.90
2022-10-26T04:48:44.235Z,3.35
2022-10-26T04:51:11.549Z,3.38
2022-10-26T04:53:38.715Z,3.20
2022-10-26T04:56:06.014Z,2.70
2022-10-26T04:58:33.269Z,2.83
2022-10-26T05:01:02.810Z,2.63
2022-10-26T05:03:30.347Z,3.05
2022-10-26T05:05:59.947Z,3.22
2022-10-26T05:08:29.975Z,3.20
2022-10-26T05:10:57.176Z,2.72
2022-10-26T05:13:24.626Z,3.25
2022-10-26T05:15:54.486Z,3.00
2022-10-26T05:18:22.087Z,3.47
2022-10-26T05:20:52.500Z,4.15
2022-10-26T05:23:20.389Z,4.72
2022-10-26T05:25:47.925Z,4.55
2022-10-26T05:28:16.312Z,3.70
2022-10-26T05:30:45.611Z,5.35
2022-10-26T05:33:13.766Z,16.05
2022-10-26T05:35:41.569Z,8.15
2022-10-26T05:38:10.602Z,5.82
2022-10-26T05:40:37.850Z,5.40
2022-10-26T05:43:05.600Z,4.15
2022-10-26T05:45:33.093Z,4.68
2022-10-26T05:48:02.713Z,3.38
2022-10-26T05:50:30.498Z,3.38
2022-10-26T05:52:57.818Z,3.17
2022-10-26T05:55:25.560Z,3.00
2022-10-26T05:57:53.174Z,2.97
2022-10-26T06:00:22.949Z,2.75
2022-10-26T06:03:17.385Z,2.60
2022-10-26T06:05:52.818Z,3.88
2022-10-26T06:08:21.487Z,3.22
2022-10-26T06:10:49.465Z,2.88
2022-10-26T06:13:17.443Z,2.60
2022-10-26T06:15:59.974Z,2.63
2022-10-26T06:18:57.100Z,1.90
2022-10-26T06:21:42.382Z,2.80
2022-10-26T06:24:18.721Z,2.23
2022-10-26T06:27:04.333Z,2.70
2022-10-26T06:30:10.193Z,2.50
2022-10-26T06:32:40.652Z,2.22
2022-10-26T06:35:24.169Z,3.05
2022-10-26T06:37:53.302Z,3.00
2022-10-26T06:40:21.619Z,3.15
2022-10-26T06:42:49.450Z,2.92
2022-10-26T06:45:17.740Z,1.95
2022-10-26T06:47:56.862Z,2.22
2022-10-26T06:50:50.905Z,2.50
2022-10-26T06:53:41.475Z,4.30
2022-10-26T06:56:11.899Z,4.07
2022-10-26T06:58:40.827Z,5.05
2022-10-26T07:01:11.152Z,5.22
2022-10-26T07:03:38.768Z,4.40
2022-10-26T07:06:06.620Z,4.85
2022-10-26T07:08:38.575Z,5.90
2022-10-26T07:11:09.586Z,5.10
2022-10-26T07:13:36.822Z,5.05
2022-10-26T07:16:04.301Z,5.78
2022-10-26T07:18:31.580Z,4.80
2022-10-26T07:21:00.091Z,4.35
2022-10-26T07:23:27.301Z,3.92
2022-10-26T07:25:54.508Z,3.83
2022-10-26T07:28:21.721Z,3.95
2022-10-26T07:30:50.841Z,3.80
2022-10-26T07:33:22.887Z,4.22
2022-10-26T07:35:49.911Z,3.55
2022-10-26T07:38:17.084Z,5.80
2022-10-26T07:40:44.338Z,10.48
2022-10-26T07:43:11.491Z,7.00
2022-10-26T07:45:40.761Z,6.20
2022-10-26T07:48:08.275Z,7.07
2022-10-26T07:50:35.483Z,5.95
2022-10-26T07:53:02.845Z,5.40
2022-10-26T07:55:30.121Z,5.03
2022-10-26T07:57:57.723Z,5.20
2022-10-26T08:00:26.131Z,4.70
2022-10-26T08:02:54.033Z,4.50
2022-10-26T08:05:22.510Z,4.28
2022-10-26T08:07:50.099Z,4.00
2022-10-26T08:10:17.661Z,3.85
2022-10-26T08:12:44.981Z,4.00
2022-10-26T08:15:12.367Z,3.75
2022-10-26T08:17:39.570Z,3.30
2022-10-26T08:20:07.215Z,3.50
2022-10-26T08:22:34.361Z,3.92
2022-10-26T08:25:01.821Z,4.00
2022-10-26T08:27:29.253Z,3.83
2022-10-26T08:29:56.417Z,3.85
2022-10-26T08:32:23.721Z,4.03
2022-10-26T08:34:50.986Z,3.90
2022-10-26T08:37:18.206Z,3.45
2022-10-26T08:39:46.485Z,4.75
2022-10-26T08:42:19.744Z,4.70
2022-10-26T08:44:48.930Z,4.22
2022-10-26T08:47:19.679Z,4.80
2022-10-26T08:49:52.004Z,4.18
2022-10-26T08:52:26.872Z,4.30
2022-10-26T08:54:57.688Z,4.55
2022-10-26T08:57:33.625Z,4.90
2022-10-26T09:00:07.568Z,4.70
2022-10-26T09:02:34.691Z,5.07
2022-10-26T09:05:02.335Z,5.05
2022-10-26T09:08:06.100Z,5.00
2022-10-26T09:11:01.831Z,4.75
2022-10-26T09:13:42.888Z,4.72
2022-10-26T09:16:33.807Z,4.68
2022-10-26T09:19:12.128Z,4.38
2022-10-26T09:21:47.437Z,4.50
2022-10-26T09:24:29.211Z,3.97
2022-10-26T09:27:00.261Z,3.75
2022-10-26T09:29:33.391Z,3.60
2022-10-26T09:32:02.501Z,4.05
2022-10-26T09:34:45.601Z,4.20
2022-10-26T09:37:16.521Z,4.70
2022-10-26T09:40:08.405Z,4.38
2022-10-26T09:42:43.278Z,3.80
2022-10-26T09:45:25.001Z,4.13
2022-10-26T09:47:56.653Z,4.20
2022-10-26T09:50:29.622Z,4.40
2022-10-26T09:52:57.039Z,4.07
2022-10-26T09:55:24.211Z,3.70
2022-10-26T09:57:55.842Z,4.13
2022-10-26T10:00:27.387Z,4.43
2022-10-26T10:02:57.447Z,3.42
2022-10-26T10:05:51.329Z,4.40
2022-10-26T10:08:18.225Z,3.85
2022-10-26T10:11:11.376Z,4.20
2022-10-26T10:13:43.301Z,3.70
2022-10-26T10:16:26.349Z,3.70
2022-10-26T10:18:57.371Z,3.90
2022-10-26T10:21:45.932Z,3.75
2022-10-26T10:24:32.670Z,3.90
2022-10-26T10:27:01.826Z,4.10
2022-10-26T10:29:32.706Z,3.97
2022-10-26T10:32:02.962Z,3.90
2022-10-26T10:34:33.940Z,3.92
2022-10-26T10:37:02.389Z,4.30
2022-10-26T10:39:39.923Z,4.70
2022-10-26T10:42:17.139Z,4.05
2022-10-26T10:44:46.614Z,4.03
2022-10-26T10:47:23.933Z,4.15
2022-10-26T10:49:54.756Z,4.43
2022-10-26T10:52:27.303Z,5.03
2022-10-26T10:55:06.883Z,4.22
2022-10-26T10:57:45.798Z,4.07
2022-10-26T11:00:20.341Z,4.22
2022-10-26T11:03:13.123Z,4.00
2022-10-26T11:06:12.940Z,3.83
2022-10-26T11:09:03.536Z,3.95
2022-10-26T11:11:41.700Z,3.53
2022-10-26T11:14:37.893Z,3.67
2022-10-26T11:17:25.561Z,3.88
2022-10-26T11:19:59.151Z,3.78
2022-10-26T11:22:42.551Z,4.03
2022-10-26T11:25:25.239Z,4.03
2022-10-26T11:27:57.562Z,3.80
2022-10-26T11:30:25.881Z,3.75
2022-10-26T11:33:12.947Z,4.20
2022-10-26T11:36:04.187Z,4.00
2022-10-26T11:38:46.215Z,4.50
2022-10-26T11:41:27.338Z,3.72
2022-10-26T11:44:21.290Z,3.90
2022-10-26T11:46:53.377Z,3.42
2022-10-26T11:49:28.474Z,3.35
2022-10-26T11:52:05.177Z,3.80
2022-10-26T11:54:53.234Z,3.38
2022-10-26T11:57:23.548Z,3.20
2022-10-26T12:00:05.943Z,2.72
2022-10-26T12:05:20.495Z,2.83
2022-10-26T12:07:53.541Z,3.20
2022-10-26T12:10:27.978Z,2.67
2022-10-26T12:12:59.321Z,2.90
2022-10-26T12:16:08.728Z,2.80
2022-10-26T12:19:01.545Z,2.67
2022-10-26T12:21:31.740Z,2.88
2022-10-26T12:24:02.445Z,2.47
2022-10-26T12:26:29.813Z,2.67
2022-10-26T12:29:04.502Z,2.42
2022-10-26T12:31:33.357Z,2.75
2022-10-26T12:34:00.960Z,2.83
2022-10-26T12:36:48.003Z,2.80
2022-10-26T12:39:33.374Z,2.72
2022-10-26T12:42:16.608Z,3.10
2022-10-26T12:44:45.790Z,3.08
2022-10-26T12:47:29.799Z,2.67
2022-10-26T12:50:14.892Z,2.42
2022-10-26T12:52:43.295Z,2.88
2022-10-26T12:55:19.777Z,2.50
2022-10-26T12:57:50.318Z,3.40
2022-10-26T13:00:23.226Z,3.47
2022-10-26T13:03:13.664Z,3.50
2022-10-26T13:06:20.532Z,3.70
2022-10-26T13:08:56.343Z,3.60
2022-10-26T13:11:32.431Z,4.15
2022-10-26T13:14:02.910Z,3.97
2022-10-26T13:16:32.335Z,3.70
2022-10-26T13:19:01.558Z,3.50
2022-10-26T13:21:29.256Z,3.45
2022-10-26T13:24:05.869Z,4.00
2022-10-26T13:26:55.337Z,3.30
2022-10-26T13:29:31.133Z,3.28
2022-10-26T13:32:01.169Z,3.35
2022-10-26T13:34:31.940Z,3.05
2022-10-26T13:37:20.406Z,3.50
2022-10-26T13:39:50.705Z,3.55
2022-10-26T13:42:22.203Z,3.45
2022-10-26T13:45:12.659Z,3.70
2022-10-26T13:47:59.652Z,3.40
2022-10-26T13:50:37.095Z,3.22
2022-10-26T13:53:15.417Z,3.15
2022-10-26T13:55:54.355Z,3.65
2022-10-26T13:58:45.735Z,3.35
2022-10-26T14:01:18.130Z,4.13
2022-10-26T14:03:46.668Z,3.78
2022-10-26T14:06:31.776Z,3.97
2022-10-26T14:09:04.362Z,3.30
2022-10-26T14:11:44.470Z,3.53
2022-10-26T14:14:20.728Z,3.72
2022-10-26T14:16:51.134Z,3.90
2022-10-26T14:19:33.093Z,3.75
2022-10-26T14:22:01.246Z,3.67
2022-10-26T14:24:46.408Z,3.70
2022-10-26T14:27:17.845Z,3.58
2022-10-26T14:30:03.685Z,3.45
2022-10-26T14:32:37.318Z,3.65
2022-10-26T14:35:11.376Z,3.60
2022-10-26T14:37:49.798Z,3.85
2022-10-26T14:40:20.593Z,2.72
2022-10-26T14:42:54.744Z,3.40
2022-10-26T14:45:48.183Z,3.67
2022-10-26T14:48:31.847Z,3.83
2022-10-26T14:51:03.554Z,3.10
2022-10-26T14:53:37.037Z,2.95
2022-10-26T14:56:19.080Z,3.25
2022-10-26T14:58:46.469Z,3.75
2022-10-26T15:01:24.135Z,3.08
2022-10-26T15:04:01.650Z,3.13
2022-10-26T15:06:31.704Z,3.10
2022-10-26T15:09:01.119Z,2.95
2022-10-26T15:11:29.909Z,3.22
2022-10-26T15:13:59.232Z,3.58
2022-10-26T15:16:30.010Z,3.10
2022-10-26T15:19:01.103Z,3.65
2022-10-26T15:21:36.933Z,2.97
2022-10-26T15:24:20.597Z,3.05
2022-10-26T15:26:48.431Z,3.03
2022-10-26T15:29:36.921Z,2.90
2022-10-26T15:34:34.282Z,2.80
2022-10-26T15:37:02.026Z,2.90
2022-10-26T15:39:29.505Z,3.20
2022-10-26T15:41:56.974Z,3.17
2022-10-26T15:44:24.463Z,3.08
2022-10-26T15:46:51.749Z,3.42
2022-10-26T15:49:21.167Z,5.10
2022-10-26T15:51:50.034Z,5.20
2022-10-26T15:54:17.601Z,5.82
2022-10-26T15:56:45.112Z,4.80
2022-10-26T15:59:15.592Z,3.67
2022-10-26T16:01:43.223Z,3.40
2022-10-26T16:04:13.983Z,3.00
2022-10-26T16:06:42.925Z,3.03
2022-10-26T16:09:16.995Z,3.55
2022-10-26T16:11:45.484Z,3.67
2022-10-26T16:14:13.129Z,3.45
2022-10-26T16:16:41.472Z,4.07
2022-10-26T16:19:29.850Z,4.22
2022-10-26T16:22:05.234Z,6.63
2022-10-26T16:24:35.733Z,12.43
2022-10-26T16:27:02.904Z,11.52
2022-10-26T16:29:30.795Z,8.52
2022-10-26T16:31:57.964Z,8.93
2022-10-26T16:34:25.568Z,6.93
2022-10-26T16:36:53.329Z,5.45
2022-10-26T16:39:20.617Z,4.97
2022-10-26T16:41:50.685Z,4.90
2022-10-26T16:44:17.927Z,5.07
2022-10-26T16:46:45.256Z,5.00
2022-10-26T16:49:12.654Z,4.45
2022-10-26T16:51:40.043Z,4.40
2022-10-26T16:54:07.367Z,3.92
2022-10-26T16:56:35.557Z,3.97
2022-10-26T16:59:02.828Z,4.70
2022-10-26T17:01:32.567Z,6.35
2022-10-26T17:04:01.201Z,6.78
2022-10-26T17:06:28.780Z,7.32
2022-10-26T17:08:56.952Z,6.22
2022-10-26T17:11:24.692Z,8.02
2022-10-26T17:13:55.673Z,7.38
2022-10-26T17:16:26.166Z,6.45
2022-10-26T17:18:55.522Z,6.80
2022-10-26T17:21:37.950Z,7.40
2022-10-26T17:24:10.295Z,7.43
2022-10-26T17:26:38.735Z,7.93
2022-10-26T17:29:06.250Z,8.23
2022-10-26T17:31:33.905Z,8.80
2022-10-26T17:34:02.479Z,8.35
2022-10-26T17:36:32.679Z,9.18
2022-10-26T17:39:01.056Z,8.40
2022-10-26T17:41:29.016Z,8.90
2022-10-26T17:43:56.287Z,9.35
2022-10-26T17:46:26.842Z,8.20
2022-10-26T17:48:58.424Z,8.38
2022-10-26T17:51:30.530Z,8.45
2022-10-26T17:53:59.447Z,9.02
2022-10-26T17:56:31.733Z,9.43
2022-10-26T17:59:06.664Z,19.38
2022-10-26T18:01:35.316Z,15.90
2022-10-26T18:04:04.448Z,11.88
2022-10-26T18:06:32.635Z,12.20
2022-10-26T18:08:59.738Z,10.65
2022-10-26T18:11:28.605Z,9.55
2022-10-26T18:14:00.688Z,9.20
2022-10-26T18:16:33.633Z,8.77
2022-10-26T18:19:09.148Z,9.15
2022-10-26T18:21:38.436Z,9.07
2022-10-26T18:24:20.233Z,8.88
2022-10-26T18:27:15.164Z,9.70
2022-10-26T18:29:43.946Z,9.10
2022-10-26T18:35:53.637Z,10.52
2022-10-26T18:38:35.095Z,9.00
2022-10-26T18:41:05.373Z,6.70
2022-10-26T18:43:34.052Z,7.57
2022-10-26T18:46:07.923Z,7.50
2022-10-26T18:48:47.554Z,7.57
2022-10-26T18:51:28.557Z,8.00
2022-10-26T18:53:58.706Z,6.45
2022-10-26T18:56:28.476Z,6.15
2022-10-26T18:59:03.561Z,5.85
2022-10-26T19:01:50.586Z,6.03
2022-10-26T19:04:23.392Z,5.93
2022-10-26T19:06:53.808Z,5.80
2022-10-26T19:09:24.427Z,5.95
2022-10-26T19:12:01.508Z,5.80
2022-10-26T19:14:41.510Z,4.90
2022-10-26T19:17:10.553Z,5.30
2022-10-26T19:19:38.180Z,5.30
2022-10-26T19:22:11.967Z,5.75
2022-10-26T19:24:41.592Z,5.70
2022-10-26T19:27:08.819Z,5.50
2022-10-26T19:29:36.590Z,6.38
2022-10-26T19:32:04.386Z,6.30
2022-10-26T19:34:31.620Z,8.13
2022-10-26T19:37:00.374Z,7.90
2022-10-26T19:39:30.031Z,8.38
2022-10-26T19:41:57.382Z,7.70
2022-10-26T19:44:25.632Z,7.57
2022-10-26T19:46:53.675Z,7.18
2022-10-26T19:49:20.902Z,7.30
2022-10-26T19:51:48.445Z,7.80
2022-10-26T19:54:15.560Z,6.00
2022-10-26T19:56:42.744Z,5.78
2022-10-26T19:59:12.548Z,6.00
2022-10-26T20:01:40.070Z,4.97
2022-10-26T20:04:07.539Z,4.63
2022-10-26T20:06:34.807Z,4.47
2022-10-26T20:09:02.575Z,4.97
2022-10-26T20:11:35.030Z,5.22
2022-10-26T20:14:03.440Z,5.10
2022-10-26T20:16:30.714Z,4.63
2022-10-26T20:19:03.232Z,5.00
2022-10-26T20:21:32.219Z,4.93
2022-10-26T20:23:59.532Z,4.53
2022-10-26T20:26:28.481Z,5.07
2022-10-26T20:28:55.885Z,5.28
2022-10-26T20:31:23.138Z,5.50
2022-10-26T20:33:54.260Z,5.00
2022-10-26T20:36:22.223Z,5.38
2022-10-26T20:38:49.874Z,5.57
2022-10-26T20:41:20.826Z,5.57
2022-10-26T20:43:48.510Z,5.40
2022-10-26T20:46:25.712Z,6.40
2022-10-26T20:48:53.851Z,6.68
2022-10-26T20:51:56.659Z,6.50
2022-10-26T20:54:38.360Z,7.38
2022-10-26T20:59:45.259Z,6.95
2022-10-26T21:02:13.516Z,6.30
2022-10-26T21:04:40.723Z,6.63
2022-10-26T21:07:08.270Z,7.00
2022-10-26T21:09:36.679Z,7.35
2022-10-26T21:12:04.699Z,8.60
2022-10-26T21:14:35.929Z,8.45
2022-10-26T21:17:03.160Z,10.50
2022-10-26T21:19:30.256Z,9.95
2022-10-26T21:21:57.413Z,9.50
2022-10-26T21:24:24.598Z,8.48
2022-10-26T21:26:52.412Z,7.95
2022-10-26T21:29:19.617Z,8.23
2022-10-26T21:31:47.112Z,8.02
2022-10-26T21:34:14.578Z,8.13
2022-10-26T21:36:42.123Z,8.25
2022-10-26T21:39:09.276Z,7.95
2022-10-26T21:41:37.995Z,8.98
2022-10-26T21:44:10.322Z,8.80
2022-10-26T21:46:49.695Z,8.20
2022-10-26T21:49:17.135Z,9.00
2022-10-26T21:51:44.369Z,8.90
2022-10-26T21:54:11.872Z,8.00
2022-10-26T21:56:40.359Z,7.88
2022-10-26T21:59:07.796Z,7.75
2022-10-26T22:01:36.304Z,8.30
2022-10-26T22:04:04.789Z,7.43
2022-10-26T22:06:32.235Z,7.28
2022-10-26T22:09:00.369Z,6.53
2022-10-26T22:11:27.633Z,6.72
2022-10-26T22:13:54.857Z,6.78
2022-10-26T22:16:25.863Z,8.10
2022-10-26T22:18:55.819Z,7.68
2022-10-26T22:21:27.175Z,6.68
2022-10-26T22:23:54.659Z,5.50
2022-10-26T22:26:24.125Z,5.53
2022-10-26T22:28:55.444Z,5.72
2022-10-26T22:34:06.599Z,5.53
2022-10-26T22:36:35.679Z,5.57
2022-10-26T22:39:03.417Z,5.55
2022-10-26T22:41:31.148Z,5.82
2022-10-26T22:43:58.456Z,6.78
2022-10-26T22:46:27.659Z,7.90
2022-10-26T22:48:57.958Z,8.60
2022-10-26T22:51:27.210Z,8.63
2022-10-26T22:53:55.995Z,7.18
2022-10-26T22:56:24.630Z,6.13
2022-10-26T22:58:53.040Z,7.15
2022-10-26T23:01:22.949Z,7.18
2022-10-26T23:03:50.404Z,7.03
2022-10-26T23:06:18.933Z,6.43
2022-10-26T23:08:46.409Z,5.82
2022-10-26T23:11:16.661Z,6.50
2022-10-26T23:13:44.432Z,7.07
2022-10-26T23:16:16.560Z,6.97
2022-10-26T23:18:43.954Z,6.65
2022-10-26T23:21:12.320Z,7.15
2022-10-26T23:23:40.149Z,7.00
2022-10-26T23:26:12.445Z,7.95
2022-10-26T23:28:41.144Z,7.95
2022-10-26T23:31:12.822Z,9.05
2022-10-26T23:33:40.051Z,8.25
2022-10-26T23:36:07.511Z,6.97
2022-10-26T23:38:34.600Z,6.85
2022-10-26T23:41:01.751Z,6.63
2022-10-26T23:43:28.908Z,7.18
2022-10-26T23:45:56.909Z,7.03
2022-10-26T23:48:24.307Z,6.32
2022-10-26T23:50:52.096Z,6.00
2022-10-26T23:53:22.185Z,6.13
2022-10-26T23:55:49.736Z,6.35
2022-10-26T23:58:18.522Z,6.20
